This is the latest recevied weather packets stored in our database for station/object KE6LRO. If no packets are shown the sender has not sent any weather packets the latest 1 day(s).
| Time | Temp. | Humidity | Pressure | Rain* | Wind** | Luminosity | Snow |
|---|---|---|---|---|---|---|---|
| 1778028241 | 15° C | 30% | 1018.7 hPa | 0 mm | - | 152 W/m² | - |
| 1778027633 | 15° C | 31% | 1018.7 hPa | 0 mm | - | 178 W/m² | - |
| 1778027329 | 15.56° C | 31% | 1018.4 hPa | 0 mm | - | 191 W/m² | - |
| 1778024299 | 16.11° C | 29% | 1018.3 hPa | 0 mm | - | 334 W/m² | - |
| 1778023694 | 16.11° C | 30% | 1018.2 hPa | 0 mm | - | 362 W/m² | - |
| 1778020057 | 15.56° C | 31% | 1018.3 hPa | 0 mm | - | 351 W/m² | - |
| 1778019451 | 16.11° C | 30% | 1018.4 hPa | 0 mm | - | 544 W/m² | - |
| 1778019147 | 15.56° C | 30% | 1018.5 hPa | 0 mm | - | 558 W/m² | - |
| 1778018844 | 15.56° C | 31% | 1018.5 hPa | 0 mm | - | 570 W/m² | - |
| 1778018542 | 15.56° C | 31% | 1018.5 hPa | 0 mm | - | 586 W/m² | - |
| 1778015514 | 16.11° C | 34% | 1018.5 hPa | 0 mm | - | 676 W/m² | - |
| 1778013999 | 17.22° C | 31% | 1018.5 hPa | 0 mm | - | 397 W/m² | - |
| 1778011877 | 16.67° C | 32% | 1018.5 hPa | 0 mm | - | 856 W/m² | - |
| 1778011575 | 16.67° C | 30% | 1018.4 hPa | 0 mm | - | 895 W/m² | - |
| 1778010968 | 16.11° C | 31% | 1018.4 hPa | 0 mm | - | 804 W/m² | - |
| 1778010058 | 16.11° C | 33% | 1018.5 hPa | 0 mm | - | 782 W/m² | - |
| 1778009151 | 15.56° C | 35% | 1018.6 hPa | 0 mm | - | 792 W/m² | - |
| 1778008848 | 16.11° C | 30% | 1018.6 hPa | 0 mm | - | 788 W/m² | - |
| 1778008546 | 16.67° C | 30% | 1018.6 hPa | 0 mm | - | 785 W/m² | - |
| 1778007938 | 15° C | 32% | 1018.5 hPa | 0 mm | - | 782 W/m² | - |
| 1778006118 | 15.56° C | 31% | 1018.7 hPa | 0 mm | - | 765 W/m² | - |
| 1778005203 | 16.11° C | 28% | 1018.7 hPa | 0 mm | - | 763 W/m² | - |
| 1778004292 | 15.56° C | 30% | 1018.9 hPa | 0 mm | - | 738 W/m² | - |
| 1778003989 | 15.56° C | 33% | 1019.1 hPa | 0 mm | - | 736 W/m² | - |
| 1778003686 | 15° C | 32% | 1019.1 hPa | 0 mm | - | 723 W/m² | - |
* Rain latest hour (hover to see other rain measurements)
** Current wind speed in m/s (hover to see current wind gust speed)